Airport View

Enter AWOS ICAO identifier for current METAR.

ex. KFNL

KPNM 101615Z AUTO 27006KT 10SM CLR 22/14 A2998 RMK AO2

10 Aug 2020 16:33

Frequency: 119.025

Phone: 763-389-0615

Other Area AWOS: KCBG - KSTC - KJMR - KMGG

TAF KSTC 101120Z 1012/1112 33009KT P6SM SCT100 FM101800 31011G17KT P6SM FEW250 FM110100 25005KT P6SM SKC FM110500 22004KT P6SM SKC